Hawley, Minnesota
Current Conditions -  °F | °C
As of 5:11 PM on Monday 22 Dec 2014 (Local Time) from KJKJ Reporting Station
Overcast Overcast  
Wind Chill: 33°   Ceiling: 2300
Heat Index: 37°   Visibility: 10mi
Dew Point: 37°   Wind: 6mph
Humidity: 100%   Direction: 100°E
Pressure: 29.58"   Gusts: NA
Location:  46.88°N, 96.32°W
Report Text: KJKJ 222311Z AUTO 10005KT 10SM SCT015 OVC023 03/03 A2958 RMK AO2
Loading
Personal Weather Stations






























Interactive Weather Map New forecast layout! Learn more

10-Day Weather Forecast

Advertisements
Track Severe Weather on mobile